• Join FlightAware (Why Join?)
  • Login
  • US Flag 
07:40AM EST


 

Airport Tracker/Info


-or-


 

Live Flight TrackerFlight Track Log ✈ AMF1026 ✈ 20-Jun-2013 ✈ KALB - KCVG

Flight Track Log - Related Links

Times and Time Zones

All times are in EDT time to prevent confusion due to time zone crossing. See the AMF1026 flight status page for this flight to view local times or setup timezone preferences in your user account.

Time Position Orientation Groundspeed Altitude Reporting Facility
EDT Latitude Longitude Course Direction KTS MPH feet Rate Location/Type
08:28PM 42.7256 -73.8053 189° South 155 178 1,100  Level Boston Center
08:29PM 42.7028 -73.8103 189° South 176 203 1,700 1,440 Climbing Boston Center
08:30PM 42.7039 -73.8839 271° West 202 232 3,300 1,500 Climbing Boston Center
08:31PM 42.7111 -73.9717 276° West 213 245 5,200 1,380 Climbing Boston Center
08:32PM 42.7183 -74.0453 278° West 218 251 6,500 1,440 Climbing Boston Center
08:33PM 42.7278 -74.1247 279° West 206 237 8,100 1,260 Climbing Boston Center
08:34PM 42.7183 -74.1922 259° West 206 237 9,100 1,140 Climbing Boston Center
08:35PM 42.7003 -74.2736 253° West 206 237 10,400 1,140 Climbing Boston Center
08:36PM 42.6867 -74.3383 254° West 206 237 11,400 1,140 Climbing Boston Center
08:37PM 42.6686 -74.4167 253° West 206 237 12,700 1,200 Climbing Boston Center
08:38PM 42.6572 -74.4756 255° West 196 226 13,900 1,200 Climbing Boston Center
08:39PM 42.6350 -74.5483 247° West 191 220 15,100 960 Climbing Boston Center
08:40PM 42.6194 -74.6042 249° West 185 213 15,900 420 Climbing Boston Center
08:41PM 42.6053 -74.6856 257° West 193 222 16,000 60 Climbing Boston Center
08:42PM 42.5769 -74.7550 241° Southwest 219 252 16,100  Climbing Boston Center
08:43PM 42.5522 -74.8386 248° West 241 277 16,100  Level Boston Center
08:44PM 42.5292 -74.9419 253° West 241 277 16,100  Level Boston Center
08:45PM 42.5147 -75.0289 257° West 241 277 16,100  Level Boston Center
08:46PM 42.4981 -75.1183 256° West 241 277 16,100  Level Boston Center
08:47PM 42.4794 -75.2019 253° West 236 272 16,100 -60 Level Boston Center
08:48PM 42.4522 -75.2881 247° West 242 278 16,000  Descending Boston Center
08:50PM 42.3942 -75.4258 240° Southwest 247 284 16,100  Climbing New York Center
08:51PM 42.3617 -75.5078 242° Southwest 247 284 16,000 -60 Descending New York Center
08:52PM 42.3336 -75.5897 245° Southwest 242 278 16,000  Level New York Center
08:53PM 42.3031 -75.6717 243° Southwest 247 284 16,000  Level New York Center
08:54PM 42.2747 -75.7564 246° West 253 291 16,000  Level New York Center
08:55PM 42.2503 -75.8386 248° West 253 291 16,000  Level New York Center
08:56PM 42.2253 -75.9347 251° West 253 291 16,000  Level New York Center
08:57PM 42.1969 -76.0164 245° Southwest 247 284 16,000  Level New York Center
08:58PM 42.1681 -76.1036 246° West 252 290 16,000  Level New York Center
08:59PM 42.1394 -76.1825 244° Southwest 252 290 16,000  Level New York Center
09:00PM 42.1128 -76.2669 247° West 252 290 16,000  Level New York Center
09:01PM 42.0839 -76.3483 244° Southwest 247 284 16,000  Level New York Center
09:02PM 42.0550 -76.4297 244° Southwest 247 284 16,000  Level New York Center
09:03PM 42.0219 -76.5133 242° Southwest 253 291 16,000  Level New York Center
09:04PM 41.9908 -76.5944 243° Southwest 253 291 16,000  Level New York Center
09:05PM 41.9556 -76.6750 240° Southwest 253 291 16,000  Level New York Center
09:06PM 41.9225 -76.7556 241° Southwest 253 291 16,000  Level New York Center
09:07PM 41.8911 -76.8392 243° Southwest 253 291 16,000  Level New York Center
09:08PM 41.8561 -76.9167 239° Southwest 253 291 16,000  Level New York Center
09:09PM 41.8244 -77.0031 244° Southwest 253 291 16,100  Climbing New York Center
09:10PM 41.7981 -77.0672 241° Southwest 253 291 16,000 -60 Descending New York Center
09:11PM 41.7642 -77.1586 244° Southwest 253 291 16,000  Level New York Center
09:13PM 41.7014 -77.3319 244° Southwest 261 300 16,000  Level Cleveland Center
09:14PM 41.6744 -77.4167 247° West 261 300 16,000  Level Cleveland Center
09:15PM 41.6539 -77.5039 253° West 261 300 16,000  Level Cleveland Center
09:16PM 41.6311 -77.5828 249° West 255 293 16,000  Level Cleveland Center
09:17PM 41.6083 -77.6697 251° West 255 293 16,000  Level Cleveland Center
09:18PM 41.5853 -77.7569 251° West 255 293 16,000  Level Cleveland Center
09:19PM 41.5603 -77.8414 248° West 250 288 16,100  Climbing Cleveland Center
09:20PM 41.5269 -77.9258 242° Southwest 255 293 16,000 -60 Descending Cleveland Center
09:21PM 41.4953 -78.0047 242° Southwest 255 293 16,000  Level Cleveland Center
09:22PM 41.4681 -78.0947 248° West 255 293 16,100  Climbing Cleveland Center
09:23PM 41.4406 -78.1761 246° West 260 299 16,100  Level Cleveland Center
09:24PM 41.4111 -78.2603 245° Southwest 260 299 16,100  Level Cleveland Center
09:25PM 41.3836 -78.3469 247° West 260 299 16,100 -60 Level Cleveland Center
09:26PM 41.3625 -78.4333 252° West 255 293 16,000  Descending Cleveland Center
09:27PM 41.3389 -78.5172 249° West 255 293 16,100  Climbing Cleveland Center
09:28PM 41.3111 -78.6011 246° West 255 293 16,100  Level Cleveland Center
09:29PM 41.2814 -78.6875 245° Southwest 255 293 16,100  Level Cleveland Center
09:30PM 41.2536 -78.7714 246° West 255 293 16,100  Level Cleveland Center
09:31PM 41.2256 -78.8494 244° Southwest 250 288 16,100  Level Cleveland Center
09:32PM 41.1936 -78.9442 246° West 255 293 16,100  Level Cleveland Center
09:33PM 41.1656 -79.0275 246° West 255 293 16,100  Level Cleveland Center
09:34PM 41.1417 -79.1025 247° West 255 293 16,100 -60 Level Cleveland Center
09:35PM 41.1178 -79.1886 250° West 255 293 16,000 -60 Descending Cleveland Center
09:36PM 41.0936 -79.2744 250° West 255 293 16,000  Level Cleveland Center
09:37PM 41.0717 -79.3631 252° West 255 293 16,000  Level Cleveland Center
09:38PM 41.0517 -79.4486 253° West 255 293 16,000  Level Cleveland Center
09:39PM 41.0275 -79.5344 250° West 249 287 16,100  Climbing Cleveland Center
09:40PM 41.0033 -79.6203 250° West 249 287 16,100  Level Cleveland Center
09:41PM 40.9789 -79.7058 249° West 249 287 16,100  Level Cleveland Center
09:42PM 40.9483 -79.7914 245° Southwest 249 287 16,100  Level Cleveland Center
09:43PM 40.9217 -79.8769 248° West 254 292 16,100  Level Cleveland Center
09:44PM 40.8972 -79.9650 250° West 254 292 16,100  Level Cleveland Center
09:45PM 40.8769 -80.0531 253° West 254 292 16,100  Level Cleveland Center
09:46PM 40.8500 -80.1411 248° West 254 292 16,100  Level Cleveland Center
09:47PM 40.8192 -80.2264 244° Southwest 254 292 16,100  Level Cleveland Center
09:48PM 40.7778 -80.3006 234° Southwest 254 292 16,100  Level Cleveland Center
09:49PM 40.7278 -80.3858 232° Southwest 267 307 16,100  Level Cleveland Center
09:50PM 40.6842 -80.4489 228° Southwest 267 307 16,100  Level Cleveland Center
09:51PM 40.6406 -80.5256 233° Southwest 272 313 16,100  Level Cleveland Center
09:52PM 40.5944 -80.6050 233° Southwest 272 313 16,100  Level Cleveland Center
09:53PM 40.5528 -80.6814 234° Southwest 256 295 16,100  Level Cleveland Center
09:54PM 40.5111 -80.7578 234° Southwest 261 300 16,100  Level Cleveland Center
09:55PM 40.4714 -80.8369 237° Southwest 266 306 16,100  Level Cleveland Center
09:56PM 40.4336 -80.9131 237° Southwest 266 306 16,100  Level Cleveland Center
09:57PM 40.3917 -80.9947 236° Southwest 266 306 16,100  Level Cleveland Center
09:58PM 40.3539 -81.0736 238° Southwest 266 306 16,100  Level Cleveland Center
09:59PM 40.3139 -81.1550 237° Southwest 266 306 16,100  Level Cleveland Center
10:00PM 40.2664 -81.2508 237° Southwest 263 303 16,100  Level Indianapolis Center
10:01PM 40.2333 -81.3339 242° Southwest 256 295 16,100  Level Indianapolis Center
10:02PM 40.2039 -81.4208 246° West 258 297 16,100  Level Indianapolis Center
10:03PM 40.1758 -81.5100 248° West 261 300 16,100  Level Indianapolis Center
10:04PM 40.1472 -81.5978 247° West 260 299 16,100  Level Indianapolis Center
10:05PM 40.1192 -81.6842 247° West 259 298 16,100  Level Indianapolis Center
10:06PM 40.0908 -81.7711 247° West 258 297 16,100  Level Indianapolis Center
10:07PM 40.0617 -81.8656 248° West 267 307 16,100  Level Indianapolis Center
10:08PM 40.0336 -81.9536 247° West 264 304 16,100  Level Indianapolis Center
10:09PM 40.0061 -82.0436 248° West 263 303 16,100 -60 Level Indianapolis Center
10:10PM 39.9786 -82.1333 248° West 265 305 16,000 -60 Descending Indianapolis Center
10:11PM 39.9522 -82.2233 249° West 263 303 16,000  Level Indianapolis Center
10:12PM 39.9247 -82.3133 248° West 265 305 16,000  Level Indianapolis Center
10:13PM 39.8986 -82.4031 249° West 264 304 16,000  Level Indianapolis Center
10:14PM 39.8667 -82.5100 249° West 268 308 16,000  Level Indianapolis Center
10:15PM 39.8403 -82.6014 249° West 268 308 16,000  Level Indianapolis Center
10:16PM 39.8144 -82.6897 249° West 263 303 16,000  Level Indianapolis Center
10:17PM 39.7872 -82.7794 248° West 263 303 16,000  Level Indianapolis Center
10:18PM 39.7597 -82.8697 248° West 265 305 16,000  Level Indianapolis Center
10:19PM 39.7308 -82.9575 247° West 263 303 16,000  Level Indianapolis Center
10:20PM 39.6978 -83.0444 244° Southwest 264 304 16,000 -360 Level Indianapolis Center
10:21PM 39.6644 -83.1325 244° Southwest 266 306 15,300 -1,140 Descending Indianapolis Center
10:23PM 39.6256 -83.2250 241° Southwest 282 325 13,800 -1,440 Descending Indianapolis Center
10:24PM 39.5883 -83.3161 242° Southwest 282 325 12,400 -1,380 Descending Indianapolis Center
10:25PM 39.5536 -83.4053 243° Southwest 274 315 11,000 -780 Descending Indianapolis Center
10:26PM 39.5181 -83.4928 242° Southwest 272 313 10,900 -120 Descending Indianapolis Center
10:27PM 39.4836 -83.5764 242° Southwest 264 304 10,800 -780 Descending Indianapolis Center
10:28PM 39.4483 -83.6608 242° Southwest 263 303 9,400 -1,380 Descending Indianapolis Center
10:29PM 39.4144 -83.7431 242° Southwest 259 298 8,000 -1,380 Descending Indianapolis Center
10:30PM 39.3822 -83.8222 242° Southwest 251 289 6,700 -1,020 Descending Indianapolis Center
10:31PM 39.3436 -83.8994 237° Southwest 251 289 6,000 -360 Descending Indianapolis Center
10:32PM 39.3075 -83.9819 241° Southwest 258 297 6,000  Level Indianapolis Center
10:33PM 39.2767 -84.0742 247° West 268 308 6,000  Level Indianapolis Center
10:34PM 39.2464 -84.1603 246° West 268 308 6,000  Level Indianapolis Center
10:35PM 39.1872 -84.2136 215° Southwest 266 306 6,000  Level Indianapolis Center
10:36PM 39.1242 -84.2553 207° Southwest 259 298 6,000  Level Indianapolis Center
10:37PM 39.0594 -84.2964 206° Southwest 257 296 6,000  Level Indianapolis Center
10:38PM 38.9964 -84.3361 206° Southwest 254 292 6,000  Level Indianapolis Center
10:39PM 38.9394 -84.3744 208° Southwest 240 276 6,000 -180 Level Indianapolis Center
10:40PM 38.8853 -84.4100 207° Southwest 224 258 5,700 -540 Descending Indianapolis Center
10:41PM 38.8369 -84.4536 215° Southwest 215 247 4,900 -660 Descending Indianapolis Center
10:43PM 38.9167 -84.6000 305° West 236 272 3,700 -780 Descending Cincinnati TRACON
10:44PM 38.9500 -84.6500 311° West 169 194 2,500 -1,080 Descending Cincinnati TRACON
10:45PM 39.0000 -84.6667 345° North 134 154 1,600 -900 Descending Cincinnati TRACON